Avenal, California
Current Conditions -  °F | °C
As of 1:56 PM on Monday 20 Oct 2014 (Local Time) from KNLC Reporting Station
Broken Clouds Broken Clouds  
Wind Chill: 78°   Ceiling: 27000
Heat Index: 79°   Visibility: 10mi
Dew Point: 50°   Wind: 9mph
Humidity: 37%   Direction: 330°NNW
Pressure: 29.9"   Gusts: NA
Location:  36°N, 120.13°W
Report Text: KNLC 202056Z 33008KT 10SM FEW034 BKN270 26/10 A2990 RMK AO2 SLP125 RH/37 T02560100 58022 $
Loading
Personal Weather Stations






























Interactive Weather Map
Tropical Storm Tracking
New forecast layout! Learn more

10-Day Weather Forecast

Advertisements
Track Severe Weather on mobile